Time;durP1;ratioP1;P1;durP2;ratioP2;P2;SDS_P1;SDS_P2;PMS_P1;PMS_P2;Temp;Humidity;BMP_temperature;BMP_pressure;BME280_temperature;BME280_humidity;BME280_pressure;Samples;Min_cycle;Max_cycle;Signal;HPM_P1;HPM_P2
2023/07/31 00:00:02;;;;;;;;;;;;;;;24.98;100.00;99292.50;5049785;28;20468;-85
2023/07/31 00:02:30;;;;;;;;;;;;;;;25.00;100.00;99295.78;5048727;28;19960;-85
2023/07/31 00:04:55;;;;;;;;;;;;;;;24.92;100.00;99298.91;5052150;28;19986;-84
2023/07/31 00:07:21;;;;;;;;;;;;;;;24.93;100.00;99295.13;5046822;28;19921;-85
2023/07/31 00:09:46;;;;;;;;;;;;;;;24.87;100.00;99295.00;5047488;28;19939;-86
2023/07/31 00:12:11;;;;;;;;;;;;;;;24.81;100.00;99295.97;5052245;28;19928;-87
2023/07/31 00:14:36;;;;;;;;;;;;;;;24.80;100.00;99294.31;5047173;28;19927;-87
2023/07/31 00:17:02;;;;;;;;;;;;;;;24.78;100.00;99291.06;5049472;28;20297;-86
2023/07/31 00:19:27;;;;;;;;;;;;;;;24.79;100.00;99291.88;5053100;28;20349;-86
2023/07/31 00:21:52;;;;;;;;;;;;;;;24.71;100.00;99298.47;5029303;28;19925;-87
2023/07/31 00:24:18;;;;;;;;;;;;;;;24.64;100.00;99297.78;5052191;28;20004;-86
2023/07/31 00:26:43;;;;;;;;;;;;;;;24.62;100.00;99294.53;5043075;28;19925;-86
2023/07/31 00:29:08;;;;;;;;;;;;;;;24.56;100.00;99295.50;5050151;28;19942;-86
2023/07/31 00:31:34;;;;;;;;;;;;;;;24.53;100.00;99290.56;5051614;28;20293;-86
2023/07/31 00:33:59;;;;;;;;;;;;;;;24.52;100.00;99294.31;5050220;28;20361;-86
2023/07/31 00:36:24;;;;;;;;;;;;;;;24.48;100.00;99287.75;5050933;28;20007;-84
2023/07/31 00:38:50;;;;;;;;;;;;;;;24.52;100.00;99288.91;5049866;28;20362;-85
2023/07/31 00:41:15;;;;;;;;;;;;;;;24.48;100.00;99290.47;5050869;28;20332;-85
2023/07/31 00:43:41;;;;;;;;;;;;;;;24.44;100.00;99286.59;5045165;28;19924;-85
2023/07/31 00:46:07;;;;;;;;;;;;;;;24.39;100.00;99299.97;5049368;28;19971;-84
2023/07/31 00:48:32;;;;;;;;;;;;;;;24.36;100.00;99303.97;5048386;28;20011;-84
2023/07/31 00:50:57;;;;;;;;;;;;;;;24.33;100.00;99295.53;5045983;28;20018;-84
2023/07/31 00:53:24;;;;;;;;;;;;;;;24.31;100.00;99292.25;5047603;28;19978;-85
2023/07/31 00:55:50;;;;;;;;;;;;;;;24.31;100.00;99298.47;5029702;28;19925;-85
2023/07/31 00:58:16;;;;;;;;;;;;;;;24.30;100.00;99296.00;5050415;28;20293;-82
2023/07/31 01:00:41;;;;;;;;;;;;;;;24.29;100.00;99289.81;5030050;28;19925;-84
2023/07/31 01:03:06;;;;;;;;;;;;;;;24.26;100.00;99300.25;5028513;28;20675;-84
2023/07/31 01:05:44;;;;;;;;;;;;;;;24.22;100.00;99293.66;5049925;28;20304;-84
2023/07/31 01:08:18;;;;;;;;;;;;;;;24.23;100.00;99289.94;5030336;28;19932;-84
2023/07/31 01:10:50;;;;;;;;;;;;;;;24.23;100.00;99284.53;5048708;28;19925;-83
2023/07/31 01:13:17;;;;;;;;;;;;;;;24.22;100.00;99288.28;5020145;28;20385;-86
2023/07/31 01:15:43;;;;;;;;;;;;;;;24.24;100.00;99287.00;5046803;28;20345;-86
2023/07/31 01:18:08;;;;;;;;;;;;;;;24.26;100.00;99278.69;5046560;28;20224;-85
2023/07/31 01:20:37;;;;;;;;;;;;;;;24.25;100.00;99288.63;5046392;28;19928;-84
2023/07/31 01:23:22;;;;;;;;;;;;;;;24.18;100.00;99282.56;5031143;28;19920;-85
2023/07/31 01:26:05;;;;;;;;;;;;;;;24.26;100.00;99284.06;5051124;28;19925;-85
2023/07/31 01:28:49;;;;;;;;;;;;;;;24.27;100.00;99285.72;5023777;28;19928;-85
2023/07/31 01:31:18;;;;;;;;;;;;;;;24.21;100.00;99278.56;5042024;28;19921;-86
2023/07/31 01:33:43;;;;;;;;;;;;;;;24.16;100.00;99273.03;5048113;28;19928;-85
2023/07/31 01:36:10;;;;;;;;;;;;;;;24.04;100.00;99271.16;5031195;28;19932;-83
2023/07/31 01:38:35;;;;;;;;;;;;;;;23.95;100.00;99272.59;5048925;28;19921;-83
2023/07/31 01:41:01;;;;;;;;;;;;;;;23.86;100.00;99263.22;5047454;28;20347;-83
2023/07/31 01:43:26;;;;;;;;;;;;;;;23.80;100.00;99268.75;5045058;28;19974;-83
2023/07/31 01:45:52;;;;;;;;;;;;;;;23.75;100.00;99269.44;5065889;28;19971;-84
2023/07/31 01:48:17;;;;;;;;;;;;;;;23.64;100.00;99254.91;5047662;28;19921;-85
2023/07/31 01:50:42;;;;;;;;;;;;;;;23.57;100.00;99266.84;5031723;28;19929;-85
2023/07/31 01:53:08;;;;;;;;;;;;;;;23.48;100.00;99265.56;5029029;28;19929;-85
2023/07/31 01:55:33;;;;;;;;;;;;;;;23.31;100.00;99275.34;5031123;28;19925;-84
2023/07/31 01:57:58;;;;;;;;;;;;;;;23.06;100.00;99270.97;5049486;28;20422;-86
2023/07/31 02:00:23;;;;;;;;;;;;;;;23.09;100.00;99277.78;5030122;28;19920;-85
2023/07/31 02:02:49;;;;;;;;;;;;;;;23.12;100.00;99256.59;5047144;28;19971;-84
2023/07/31 02:05:14;;;;;;;;;;;;;;;23.14;100.00;99259.88;5050346;28;19928;-82
2023/07/31 02:07:39;;;;;;;;;;;;;;;23.20;100.00;99267.03;5045432;28;19921;-87
2023/07/31 02:10:05;;;;;;;;;;;;;;;23.26;100.00;99274.19;5049893;28;19929;-86
2023/07/31 02:12:31;;;;;;;;;;;;;;;23.23;100.00;99268.44;5046888;28;19921;-86
2023/07/31 02:14:57;;;;;;;;;;;;;;;23.22;100.00;99278.38;5046273;28;19920;-89
2023/07/31 02:17:22;;;;;;;;;;;;;;;23.18;100.00;99271.81;5048886;28;20277;-88
2023/07/31 02:19:48;;;;;;;;;;;;;;;23.15;100.00;99283.03;5047518;28;19927;-89
2023/07/31 02:22:13;;;;;;;;;;;;;;;23.17;100.00;99272.88;5045939;28;20389;-88
2023/07/31 02:24:38;;;;;;;;;;;;;;;22.99;100.00;99282.88;5034062;28;20338;-88
2023/07/31 02:27:04;;;;;;;;;;;;;;;22.87;100.00;99285.53;5027899;28;20689;-88
2023/07/31 02:29:29;;;;;;;;;;;;;;;22.72;100.00;99287.81;5051403;28;19960;-89
2023/07/31 02:31:54;;;;;;;;;;;;;;;22.49;100.00;99283.13;5034739;28;19971;-87
2023/07/31 02:34:20;;;;;;;;;;;;;;;22.51;100.00;99286.38;5053590;28;19920;-87
2023/07/31 02:36:45;;;;;;;;;;;;;;;22.56;100.00;99296.50;5043054;28;20047;-86
2023/07/31 02:39:11;;;;;;;;;;;;;;;22.60;100.00;99295.81;5054249;28;19979;-86
2023/07/31 02:41:36;;;;;;;;;;;;;;;22.68;100.00;99302.75;5042494;28;19964;-86
2023/07/31 02:44:01;;;;;;;;;;;;;;;22.66;100.00;99294.06;5045339;28;19972;-85
2023/07/31 02:46:27;;;;;;;;;;;;;;;22.61;100.00;99296.63;5046802;28;19921;-81
2023/07/31 02:48:52;;;;;;;;;;;;;;;22.53;100.00;99296.94;5047505;28;19928;-85
2023/07/31 02:51:17;;;;;;;;;;;;;;;22.48;100.00;99297.63;5048134;28;19920;-84
2023/07/31 02:53:43;;;;;;;;;;;;;;;22.39;100.00;99299.78;5028811;28;20039;-84
2023/07/31 02:56:08;;;;;;;;;;;;;;;22.40;100.00;99296.03;5045181;28;19935;-84
2023/07/31 02:58:33;;;;;;;;;;;;;;;22.33;100.00;99295.28;5049874;28;19952;-84
2023/07/31 03:00:59;;;;;;;;;;;;;;;22.31;100.00;99297.41;5043412;28;20308;-82
2023/07/31 03:03:24;;;;;;;;;;;;;;;22.12;100.00;99295.75;5048030;28;19925;-83
2023/07/31 03:05:49;;;;;;;;;;;;;;;22.00;100.00;99300.22;5043745;28;19921;-82
2023/07/31 03:08:15;;;;;;;;;;;;;;;21.71;100.00;99290.16;5047570;28;20392;-83
2023/07/31 03:10:40;;;;;;;;;;;;;;;21.61;100.00;99290.66;5047883;28;19973;-83
2023/07/31 03:13:05;;;;;;;;;;;;;;;21.32;100.00;99292.16;5042905;28;19921;-80
2023/07/31 03:15:31;;;;;;;;;;;;;;;21.14;100.00;99294.72;5027719;28;19964;-82
2023/07/31 03:17:56;;;;;;;;;;;;;;;20.88;100.00;99293.00;5049002;28;19921;-82
2023/07/31 03:20:21;;;;;;;;;;;;;;;20.81;100.00;99295.72;5024481;28;19928;-83
2023/07/31 03:22:47;;;;;;;;;;;;;;;20.84;100.00;99297.19;5013430;28;19921;-82
2023/07/31 03:25:12;;;;;;;;;;;;;;;20.94;100.00;99294.00;5048131;28;19924;-82
2023/07/31 03:27:37;;;;;;;;;;;;;;;20.90;100.00;99298.16;5046473;28;20385;-82
2023/07/31 03:30:03;;;;;;;;;;;;;;;20.92;100.00;99296.06;5028175;28;20691;-82
2023/07/31 03:32:29;;;;;;;;;;;;;;;20.87;100.00;99295.91;5028759;28;19921;-83
2023/07/31 03:34:54;;;;;;;;;;;;;;;21.03;100.00;99308.81;5026665;28;19948;-84
2023/07/31 03:37:19;;;;;;;;;;;;;;;21.15;100.00;99312.47;5048997;28;20384;-84
2023/07/31 03:39:45;;;;;;;;;;;;;;;21.14;100.00;99313.50;5043419;28;19971;-83
2023/07/31 03:42:10;;;;;;;;;;;;;;;21.26;100.00;99308.28;5046998;28;20323;-82
2023/07/31 03:44:35;;;;;;;;;;;;;;;21.33;100.00;99309.88;5044158;28;19974;-84
2023/07/31 03:47:01;;;;;;;;;;;;;;;21.42;100.00;99313.94;5044898;28;19969;-83
2023/07/31 03:49:26;;;;;;;;;;;;;;;21.49;100.00;99312.03;5045941;28;19948;-83
2023/07/31 03:51:51;;;;;;;;;;;;;;;21.57;100.00;99311.75;5045155;28;19924;-83
2023/07/31 03:54:17;;;;;;;;;;;;;;;21.56;100.00;99310.09;5044950;28;19920;-83
2023/07/31 03:56:42;;;;;;;;;;;;;;;21.60;100.00;99318.53;5048706;28;19928;-83
2023/07/31 03:59:07;;;;;;;;;;;;;;;21.65;100.00;99324.06;5047388;28;20334;-83
2023/07/31 04:01:32;;;;;;;;;;;;;;;21.76;100.00;99330.59;5046185;28;19925;-84
2023/07/31 04:03:58;;;;;;;;;;;;;;;21.81;100.00;99331.56;5030258;28;20396;-82
2023/07/31 04:06:23;;;;;;;;;;;;;;;21.75;100.00;99340.50;5047769;28;19931;-84
2023/07/31 04:08:48;;;;;;;;;;;;;;;21.82;100.00;99351.19;5049034;28;20369;-83
2023/07/31 04:11:14;;;;;;;;;;;;;;;21.79;100.00;99347.09;5044908;28;19927;-83
2023/07/31 04:13:39;;;;;;;;;;;;;;;21.82;100.00;99356.56;5045276;28;20280;-82
2023/07/31 04:16:05;;;;;;;;;;;;;;;21.69;100.00;99346.75;5050393;28;19928;-83
2023/07/31 04:18:32;;;;;;;;;;;;;;;21.76;100.00;99349.38;5051165;28;20280;-82
2023/07/31 04:21:01;;;;;;;;;;;;;;;21.76;100.00;99352.91;5046730;28;20438;-83
2023/07/31 04:23:26;;;;;;;;;;;;;;;21.79;100.00;99352.47;5050268;28;19921;-83
2023/07/31 04:25:51;;;;;;;;;;;;;;;21.84;100.00;99354.50;5048865;28;19932;-83
2023/07/31 04:28:17;;;;;;;;;;;;;;;21.84;100.00;99355.31;5051000;28;20319;-83
2023/07/31 04:30:42;;;;;;;;;;;;;;;21.85;100.00;99356.16;5052400;28;19945;-82
2023/07/31 04:33:08;;;;;;;;;;;;;;;21.82;100.00;99357.38;5050806;28;19960;-82
2023/07/31 04:35:33;;;;;;;;;;;;;;;21.83;100.00;99342.09;5048903;28;20272;-85
2023/07/31 04:37:58;;;;;;;;;;;;;;;21.78;100.00;99350.00;5050034;28;19921;-85
2023/07/31 04:40:23;;;;;;;;;;;;;;;21.79;100.00;99357.03;5049698;28;19974;-85
2023/07/31 04:42:49;;;;;;;;;;;;;;;21.61;100.00;99347.88;5047482;28;19921;-85
2023/07/31 04:45:14;;;;;;;;;;;;;;;21.45;100.00;99348.38;5058149;28;19920;-84
2023/07/31 04:47:39;;;;;;;;;;;;;;;21.38;100.00;99361.06;5047707;28;19921;-84
2023/07/31 04:50:05;;;;;;;;;;;;;;;21.51;100.00;99360.94;5048986;28;19925;-85
2023/07/31 04:52:30;;;;;;;;;;;;;;;21.64;100.00;99360.84;5039413;28;20397;-85
2023/07/31 04:54:56;;;;;;;;;;;;;;;21.76;100.00;99362.81;5033228;28;20043;-84
2023/07/31 04:57:21;;;;;;;;;;;;;;;21.78;100.00;99363.44;5031283;28;19921;-84
2023/07/31 04:59:46;;;;;;;;;;;;;;;21.87;100.00;99372.84;5049890;28;19917;-83
2023/07/31 05:02:13;;;;;;;;;;;;;;;21.99;100.00;99368.44;5050055;28;19931;-84
2023/07/31 05:04:38;;;;;;;;;;;;;;;22.04;100.00;99382.84;5049540;28;19921;-84
2023/07/31 05:07:03;;;;;;;;;;;;;;;22.11;100.00;99388.16;5044496;28;20012;-86
2023/07/31 05:09:29;;;;;;;;;;;;;;;22.18;100.00;99393.47;5047131;28;19920;-76
2023/07/31 05:11:54;;;;;;;;;;;;;;;22.17;100.00;99403.41;5048607;28;19928;-77
2023/07/31 05:14:20;;;;;;;;;;;;;;;22.18;100.00;99405.06;5039783;28;19958;-79
2023/07/31 05:16:45;;;;;;;;;;;;;;;22.18;100.00;99407.75;5028641;28;20424;-81
2023/07/31 05:19:11;;;;;;;;;;;;;;;22.15;100.00;99410.84;5033928;28;20569;-83
2023/07/31 05:21:36;;;;;;;;;;;;;;;22.07;100.00;99413.84;5038407;28;19921;-78
2023/07/31 05:24:01;;;;;;;;;;;;;;;21.96;100.00;99415.38;5049283;28;19927;-80
2023/07/31 05:26:26;;;;;;;;;;;;;;;21.80;100.00;99409.69;5045021;28;20012;-80
2023/07/31 05:28:52;;;;;;;;;;;;;;;21.62;100.00;99403.19;5044615;28;19928;-80
2023/07/31 05:31:17;;;;;;;;;;;;;;;21.51;100.00;99414.63;5049312;28;20011;-79
2023/07/31 05:33:42;;;;;;;;;;;;;;;21.55;100.00;99421.25;5047969;28;20349;-79
2023/07/31 05:36:08;;;;;;;;;;;;;;;21.57;100.00;99411.09;5000618;28;19922;-81
2023/07/31 05:38:34;;;;;;;;;;;;;;;21.70;100.00;99422.78;5031698;28;19975;-81
2023/07/31 05:40:59;;;;;;;;;;;;;;;21.80;100.00;99418.56;5047011;28;19921;-81
2023/07/31 05:43:24;;;;;;;;;;;;;;;21.89;100.00;99416.44;5047302;28;20296;-80
2023/07/31 05:45:51;;;;;;;;;;;;;;;22.01;100.00;99415.53;5045571;28;20301;-86
2023/07/31 05:48:16;;;;;;;;;;;;;;;22.12;100.00;99411.31;5019821;28;19928;-87
2023/07/31 05:50:42;;;;;;;;;;;;;;;22.20;100.00;99416.41;5045736;28;20262;-86
2023/07/31 05:53:08;;;;;;;;;;;;;;;22.27;100.00;99424.38;5045973;28;20494;-82
2023/07/31 05:55:33;;;;;;;;;;;;;;;22.27;100.00;99427.91;5047001;28;19924;-81
2023/07/31 05:57:59;;;;;;;;;;;;;;;22.35;100.00;99422.25;5048710;28;19921;-84
2023/07/31 06:00:24;;;;;;;;;;;;;;;22.33;100.00;99432.38;5046635;28;20348;-86
2023/07/31 06:02:49;;;;;;;;;;;;;;;22.37;100.00;99424.72;5045252;28;19921;-85
2023/07/31 06:05:15;;;;;;;;;;;;;;;22.34;100.00;99425.97;5051645;28;20339;-86
2023/07/31 06:07:40;;;;;;;;;;;;;;;22.49;100.00;99411.38;5046928;28;20293;-86
2023/07/31 06:10:06;;;;;;;;;;;;;;;22.60;100.00;99416.00;5049385;28;20426;-87
2023/07/31 06:12:32;;;;;;;;;;;;;;;22.71;100.00;99415.25;5050025;28;19928;-85
2023/07/31 06:14:57;;;;;;;;;;;;;;;22.80;100.00;99417.44;5045288;28;20026;-84
2023/07/31 06:17:22;;;;;;;;;;;;;;;22.88;100.00;99410.94;5049021;28;20012;-86
2023/07/31 06:19:48;;;;;;;;;;;;;;;22.94;100.00;99404.66;5047349;28;19921;-87
2023/07/31 06:22:13;;;;;;;;;;;;;;;23.06;100.00;99397.47;5051017;28;19921;-86
2023/07/31 06:24:38;;;;;;;;;;;;;;;23.12;100.00;99401.94;5049847;28;20316;-86
2023/07/31 06:30:32;;;;;;;;;;;;;;;23.37;100.00;99409.06;5046242;28;20289;-87
2023/07/31 06:32:57;;;;;;;;;;;;;;;23.41;100.00;99402.97;5050773;28;19921;-85
2023/07/31 06:35:23;;;;;;;;;;;;;;;23.51;100.00;99415.91;5046707;28;19939;-87
2023/07/31 06:37:48;;;;;;;;;;;;;;;23.59;100.00;99424.50;5049876;28;19920;-88
2023/07/31 06:40:14;;;;;;;;;;;;;;;23.66;100.00;99427.91;5048563;28;19966;-86
2023/07/31 06:42:39;;;;;;;;;;;;;;;23.72;100.00;99434.25;5047406;28;19928;-86
2023/07/31 06:45:06;;;;;;;;;;;;;;;23.78;100.00;99432.50;5050451;28;20045;-84
2023/07/31 06:47:32;;;;;;;;;;;;;;;23.80;100.00;99441.19;5060763;28;19932;-87
2023/07/31 06:49:57;;;;;;;;;;;;;;;23.83;100.00;99440.72;5047754;22;20206;-77
2023/07/31 06:52:22;;;;;;;;;;;;;;;23.80;100.00;99452.75;5028882;28;20277;-75
2023/07/31 06:55:00;;;;;;;;;;;;;;;23.92;100.00;99455.47;5023886;28;19921;-78
2023/07/31 06:57:25;;;;;;;;;;;;;;;23.97;100.00;99451.06;5021935;28;20304;-78
2023/07/31 06:59:51;;;;;;;;;;;;;;;23.92;100.00;99450.91;5029603;28;20025;-79
2023/07/31 07:02:16;;;;;;;;;;;;;;;23.98;100.00;99447.28;5024088;28;19925;-78
2023/07/31 07:04:41;;;;;;;;;;;;;;;24.04;100.00;99432.88;5027921;28;19921;-79
2023/07/31 07:07:07;;;;;;;;;;;;;;;23.96;100.00;99443.22;5026999;28;19925;-78
2023/07/31 07:09:32;;;;;;;;;;;;;;;23.79;100.00;99439.53;5026057;28;20019;-78
2023/07/31 07:11:58;;;;;;;;;;;;;;;23.84;100.00;99453.97;5026734;28;19951;-77
2023/07/31 07:14:23;;;;;;;;;;;;;;;23.90;100.00;99447.66;5026253;28;19917;-78
2023/07/31 07:16:50;;;;;;;;;;;;;;;23.95;100.00;99455.88;5024956;28;19921;-78
2023/07/31 07:19:16;;;;;;;;;;;;;;;24.04;100.00;99437.47;5029445;28;20000;-77
2023/07/31 07:21:41;;;;;;;;;;;;;;;24.13;100.00;99440.66;5023727;28;19917;-78
2023/07/31 07:24:07;;;;;;;;;;;;;;;24.14;100.00;99436.91;5025232;28;19921;-78
2023/07/31 07:26:32;;;;;;;;;;;;;;;24.24;100.00;99445.25;5028950;28;20074;-78
2023/07/31 07:28:58;;;;;;;;;;;;;;;24.33;100.00;99449.22;5026639;28;19921;-78
2023/07/31 07:31:23;;;;;;;;;;;;;;;24.43;100.00;99452.19;5008404;28;19922;-77
2023/07/31 07:33:49;;;;;;;;;;;;;;;24.48;100.00;99455.00;5026220;28;20008;-77
2023/07/31 07:36:14;;;;;;;;;;;;;;;24.61;100.00;99454.75;5026338;28;19922;-77
2023/07/31 07:38:40;;;;;;;;;;;;;;;24.67;100.00;99448.41;5027852;28;19983;-76
2023/07/31 07:41:06;;;;;;;;;;;;;;;24.67;100.00;99445.72;5025866;28;19927;-78
2023/07/31 07:43:31;;;;;;;;;;;;;;;24.73;100.00;99436.69;5030417;28;19921;-78
2023/07/31 07:45:57;;;;;;;;;;;;;;;24.76;100.00;99440.75;5014640;28;20031;-77
2023/07/31 07:48:23;;;;;;;;;;;;;;;24.90;100.00;99439.50;5027216;28;19960;-76
2023/07/31 07:50:49;;;;;;;;;;;;;;;24.96;100.00;99446.63;5031064;28;20337;-78
2023/07/31 07:53:14;;;;;;;;;;;;;;;24.93;100.00;99447.09;5021717;28;20024;-75
2023/07/31 07:55:42;;;;;;;;;;;;;;;24.90;100.00;99436.78;5030468;28;19921;-77
2023/07/31 07:58:08;;;;;;;;;;;;;;;24.94;100.00;99442.53;5031589;28;20805;-77
2023/07/31 08:00:33;;;;;;;;;;;;;;;24.99;100.00;99448.84;5029087;28;20028;-77
2023/07/31 08:02:58;;;;;;;;;;;;;;;24.96;100.00;99448.50;5028832;28;20387;-78
2023/07/31 08:05:24;;;;;;;;;;;;;;;24.91;100.00;99453.81;5031847;28;19921;-77
2023/07/31 08:07:50;;;;;;;;;;;;;;;24.91;100.00;99451.09;5030365;28;19927;-77
2023/07/31 08:10:15;;;;;;;;;;;;;;;24.94;100.00;99447.91;5030670;28;19925;-78
2023/07/31 08:12:41;;;;;;;;;;;;;;;24.95;100.00;99444.16;5032763;28;19974;-77
2023/07/31 08:15:06;;;;;;;;;;;;;;;24.98;100.00;99444.50;5028661;28;19932;-77
2023/07/31 08:17:32;;;;;;;;;;;;;;;25.04;100.00;99453.50;5030198;28;19928;-77
2023/07/31 08:19:58;;;;;;;;;;;;;;;25.11;100.00;99459.59;5031323;28;19974;-79
2023/07/31 08:22:24;;;;;;;;;;;;;;;25.19;100.00;99456.53;5027481;28;19921;-77
2023/07/31 08:24:49;;;;;;;;;;;;;;;25.26;100.00;99451.81;5030061;28;20000;-78
2023/07/31 08:27:14;;;;;;;;;;;;;;;25.31;100.00;99454.63;5029234;28;19925;-78
2023/07/31 08:29:40;;;;;;;;;;;;;;;25.37;100.00;99448.25;5030171;28;19921;-78
2023/07/31 08:32:05;;;;;;;;;;;;;;;25.37;100.00;99450.97;5031841;28;19925;-78
2023/07/31 08:34:31;;;;;;;;;;;;;;;25.38;100.00;99452.59;5029476;28;19928;-78
2023/07/31 08:36:56;;;;;;;;;;;;;;;25.39;100.00;99451.53;5028922;28;19932;-78
2023/07/31 08:39:22;;;;;;;;;;;;;;;25.37;100.00;99442.84;5032686;28;19921;-76
2023/07/31 08:41:47;;;;;;;;;;;;;;;25.40;100.00;99442.34;5026993;28;19928;-76
2023/07/31 08:44:13;;;;;;;;;;;;;;;25.43;100.00;99441.91;5029834;28;20372;-78
2023/07/31 08:46:39;;;;;;;;;;;;;;;25.51;100.00;99436.09;5028430;28;19929;-78
2023/07/31 08:49:08;;;;;;;;;;;;;;;25.55;100.00;99433.72;5029536;28;20011;-78
2023/07/31 08:51:35;;;;;;;;;;;;;;;25.59;100.00;99433.03;5028914;28;19965;-78
2023/07/31 08:54:01;;;;;;;;;;;;;;;25.57;100.00;99432.44;5027756;28;19975;-78
2023/07/31 08:56:27;;;;;;;;;;;;;;;25.55;100.00;99423.75;5026346;28;19921;-77
2023/07/31 08:58:53;;;;;;;;;;;;;;;25.57;100.00;99427.03;5031810;28;20304;-78
2023/07/31 09:01:19;;;;;;;;;;;;;;;25.60;100.00;99426.56;5026890;28;19925;-77
2023/07/31 09:03:45;;;;;;;;;;;;;;;25.65;100.00;99432.06;5030381;28;20020;-78
2023/07/31 09:06:11;;;;;;;;;;;;;;;25.72;100.00;99440.00;5027548;28;19965;-78
2023/07/31 09:08:41;;;;;;;;;;;;;;;25.64;100.00;99427.72;5028192;28;20328;-77
2023/07/31 09:11:06;;;;;;;;;;;;;;;25.60;100.00;99431.16;5030228;28;19925;-78
2023/07/31 09:13:32;;;;;;;;;;;;;;;25.66;100.00;99431.00;5013738;28;19985;-77
2023/07/31 09:15:58;;;;;;;;;;;;;;;25.65;100.00;99423.94;5027447;28;20011;-78
2023/07/31 09:18:24;;;;;;;;;;;;;;;25.71;100.00;99426.72;5012982;28;19927;-78
2023/07/31 09:21:02;;;;;;;;;;;;;;;25.62;100.00;99429.03;5028572;28;19921;-78
2023/07/31 09:23:39;;;;;;;;;;;;;;;25.67;100.00;99426.41;5023854;28;19932;-78
2023/07/31 09:26:05;;;;;;;;;;;;;;;25.73;100.00;99430.03;5031399;28;19963;-78
2023/07/31 09:28:31;;;;;;;;;;;;;;;25.75;100.00;99428.69;5026116;28;20018;-77
2023/07/31 09:30:56;;;;;;;;;;;;;;;25.71;100.00;99426.72;5031101;28;19921;-78
2023/07/31 09:33:22;;;;;;;;;;;;;;;25.77;100.00;99420.34;5029000;28;19929;-79
2023/07/31 09:35:50;;;;;;;;;;;;;;;25.66;100.00;99425.59;5029785;28;19960;-75
2023/07/31 09:38:16;;;;;;;;;;;;;;;25.64;100.00;99418.78;5023668;28;20448;-78
2023/07/31 09:40:43;;;;;;;;;;;;;;;25.58;100.00;99423.28;5028370;28;20354;-78
2023/07/31 09:43:10;;;;;;;;;;;;;;;25.65;100.00;99412.31;5026736;28;19956;-77
2023/07/31 09:45:40;;;;;;;;;;;;;;;25.72;100.00;99422.97;5031043;28;20337;-78
2023/07/31 09:48:09;;;;;;;;;;;;;;;25.78;100.00;99416.59;5028556;28;19922;-78
2023/07/31 09:50:36;;;;;;;;;;;;;;;25.87;100.00;99415.94;5029778;28;19921;-78
2023/07/31 09:53:02;;;;;;;;;;;;;;;25.90;100.00;99415.47;5027983;28;19932;-77
2023/07/31 09:55:28;;;;;;;;;;;;;;;25.92;100.00;99409.81;5010521;28;19944;-78
2023/07/31 09:57:55;;;;;;;;;;;;;;;26.00;100.00;99398.56;5023194;28;20086;-78
2023/07/31 10:00:24;;;;;;;;;;;;;;;25.94;100.00;99399.56;5013886;28;19957;-78
2023/07/31 10:02:51;;;;;;;;;;;;;;;26.00;100.00;99395.88;5022472;28;19921;-77
2023/07/31 10:05:16;;;;;;;;;;;;;;;26.09;100.00;99397.91;5029275;28;19932;-78
2023/07/31 10:07:43;;;;;;;;;;;;;;;26.19;100.00;99399.94;5027738;28;19921;-78
2023/07/31 10:10:09;;;;;;;;;;;;;;;26.27;100.00;99393.34;5028802;28;20366;-78
2023/07/31 10:12:35;;;;;;;;;;;;;;;26.33;100.00;99387.72;5028223;28;19925;-77
2023/07/31 10:15:01;;;;;;;;;;;;;;;26.30;100.00;99390.94;5028050;28;19993;-78
2023/07/31 10:17:26;;;;;;;;;;;;;;;26.38;100.00;99390.53;5027976;28;19924;-78
2023/07/31 10:19:56;;;;;;;;;;;;;;;26.45;100.00;99380.31;5030709;28;19925;-78
2023/07/31 10:22:22;;;;;;;;;;;;;;;26.56;100.00;99380.47;5032080;28;19960;-79
2023/07/31 10:24:48;;;;;;;;;;;;;;;26.63;100.00;99378.38;5031329;28;20002;-77
2023/07/31 10:27:14;;;;;;;;;;;;;;;26.70;100.00;99370.91;5031441;28;19975;-77
2023/07/31 10:29:41;;;;;;;;;;;;;;;26.77;100.00;99371.53;5031632;28;19925;-78
2023/07/31 10:32:10;;;;;;;;;;;;;;;26.81;100.00;99372.66;5031302;28;20308;-79
2023/07/31 10:34:36;;;;;;;;;;;;;;;26.87;100.00;99372.47;5031499;28;19937;-77
2023/07/31 10:37:24;;;;;;;;;;;;;;;26.91;100.00;99356.59;5030992;28;19966;-78
2023/07/31 10:40:05;;;;;;;;;;;;;;;26.95;100.00;99355.00;5024241;28;19925;-78
2023/07/31 10:42:34;;;;;;;;;;;;;;;27.05;100.00;99354.28;5027997;28;19947;-78
2023/07/31 10:45:01;;;;;;;;;;;;;;;27.13;100.00;99349.25;5027704;28;19925;-79
2023/07/31 10:47:27;;;;;;;;;;;;;;;27.18;100.00;99346.56;5031513;28;19925;-78
2023/07/31 10:49:52;;;;;;;;;;;;;;;27.22;100.00;99342.28;5030747;28;19921;-78
2023/07/31 10:52:26;;;;;;;;;;;;;;;27.25;100.00;99340.97;5031478;28;19979;-77
2023/07/31 10:55:11;;;;;;;;;;;;;;;27.34;100.00;99344.00;5010328;28;20297;-78
2023/07/31 10:57:37;;;;;;;;;;;;;;;27.43;100.00;99337.88;5031080;28;20090;-76
2023/07/31 11:00:18;;;;;;;;;;;;;;;27.51;100.00;99345.56;5030827;28;20006;-79
2023/07/31 11:02:55;;;;;;;;;;;;;;;27.60;100.00;99343.19;5029829;28;19921;-77
2023/07/31 11:05:22;;;;;;;;;;;;;;;27.69;100.00;99337.03;5019899;28;20004;-77
2023/07/31 11:07:48;;;;;;;;;;;;;;;27.77;100.00;99338.47;5031201;28;19974;-75
2023/07/31 11:10:16;;;;;;;;;;;;;;;27.85;100.00;99335.28;5020699;28;19929;-75
2023/07/31 11:12:41;;;;;;;;;;;;;;;27.90;100.00;99335.31;5014466;28;19921;-77
2023/07/31 11:15:07;;;;;;;;;;;;;;;27.96;100.00;99326.13;5016078;28;19929;-77
2023/07/31 11:17:32;;;;;;;;;;;;;;;28.03;100.00;99329.44;5022574;28;19941;-77
2023/07/31 11:19:58;;;;;;;;;;;;;;;28.15;100.00;99320.31;5019683;28;21312;-77
2023/07/31 11:22:23;;;;;;;;;;;;;;;28.19;100.00;99316.78;5003404;28;19921;-76
2023/07/31 11:24:48;;;;;;;;;;;;;;;28.21;100.00;99320.06;5016395;28;19964;-77
2023/07/31 11:27:14;;;;;;;;;;;;;;;28.17;100.00;99318.94;5025105;28;19948;-78
2023/07/31 11:29:40;;;;;;;;;;;;;;;28.30;100.00;99317.66;5020829;28;19922;-77
2023/07/31 11:32:05;;;;;;;;;;;;;;;28.40;100.00;99299.53;5012649;28;20016;-76
2023/07/31 11:34:31;;;;;;;;;;;;;;;28.49;100.00;99313.41;5017233;28;19930;-76
2023/07/31 11:36:57;;;;;;;;;;;;;;;28.53;100.00;99314.50;5013756;28;19918;-75
2023/07/31 11:39:22;;;;;;;;;;;;;;;28.56;100.00;99314.00;5033025;28;19968;-75
2023/07/31 11:41:47;;;;;;;;;;;;;;;28.56;100.00;99313.16;5021875;28;20285;-73
2023/07/31 11:44:13;;;;;;;;;;;;;;;28.55;100.00;99311.53;5018950;28;19948;-75
2023/07/31 11:46:38;;;;;;;;;;;;;;;28.55;100.00;99306.94;5031691;28;20238;-74
2023/07/31 11:49:05;;;;;;;;;;;;;;;28.54;100.00;99299.03;5034275;28;19920;-76
2023/07/31 11:51:31;;;;;;;;;;;;;;;28.51;100.00;99305.84;5030568;28;20021;-75
2023/07/31 11:53:58;;;;;;;;;;;;;;;28.51;100.00;99297.69;5025162;28;20004;-77
2023/07/31 11:56:25;;;;;;;;;;;;;;;28.44;100.00;99300.66;5022552;28;19928;-77
2023/07/31 11:58:53;;;;;;;;;;;;;;;28.40;100.00;99301.41;5017173;28;20289;-77
2023/07/31 12:01:19;;;;;;;;;;;;;;;28.40;100.00;99301.41;5020284;28;19929;-77
2023/07/31 12:03:46;;;;;;;;;;;;;;;28.44;100.00;99288.97;5024422;28;20353;-75
2023/07/31 12:06:11;;;;;;;;;;;;;;;28.49;100.00;99287.09;5033280;28;19944;-77
2023/07/31 12:08:37;;;;;;;;;;;;;;;28.52;100.00;99283.81;5025791;28;19921;-78
2023/07/31 12:11:03;;;;;;;;;;;;;;;28.55;100.00;99285.22;5019243;28;20433;-78
2023/07/31 12:13:30;;;;;;;;;;;;;;;28.56;100.00;99276.00;5024801;28;19921;-78
2023/07/31 12:15:57;;;;;;;;;;;;;;;28.58;100.00;99276.50;5034294;28;19921;-77
2023/07/31 12:18:23;;;;;;;;;;;;;;;28.60;100.00;99263.50;5034657;28;19922;-78
2023/07/31 12:20:53;;;;;;;;;;;;;;;28.69;100.00;99259.16;5033387;28;19925;-77
2023/07/31 12:23:27;;;;;;;;;;;;;;;29.04;100.00;99249.50;5023276;28;19972;-77
2023/07/31 12:26:11;;;;;;;;;;;;;;;29.42;100.00;99243.56;5029475;28;19921;-73
2023/07/31 12:28:37;;;;;;;;;;;;;;;29.63;100.00;99242.44;5024259;28;19922;-76
2023/07/31 12:31:03;;;;;;;;;;;;;;;29.68;100.00;99245.16;4997975;28;19921;-76
2023/07/31 12:33:35;;;;;;;;;;;;;;;29.69;100.00;99238.59;5033475;28;20122;-76